sensor_id;sensor_type;location;lat;lon;timestamp;pressure;altitude;pressure_sealevel;temperature;humidity
47897;BME280;39629;51.400;5.494;2023-11-21T00:04:41;100793.38;;;5.19;100.00
47897;BME280;39629;51.400;5.494;2023-11-21T00:09:42;100797.84;;;5.26;100.00
47897;BME280;39629;51.400;5.494;2023-11-21T00:14:45;100792.78;;;5.34;100.00
47897;BME280;39629;51.400;5.494;2023-11-21T00:19:47;100796.38;;;5.40;100.00
47897;BME280;39629;51.400;5.494;2023-11-21T00:24:49;100802.44;;;5.39;100.00
47897;BME280;39629;51.400;5.494;2023-11-21T00:29:51;100798.09;;;5.40;100.00
47897;BME280;39629;51.400;5.494;2023-11-21T00:34:54;100808.53;;;5.40;100.00
47897;BME280;39629;51.400;5.494;2023-11-21T00:39:55;100804.19;;;5.40;100.00
47897;BME280;39629;51.400;5.494;2023-11-21T00:44:58;100807.66;;;5.39;100.00
47897;BME280;39629;51.400;5.494;2023-11-21T00:50:00;100805.84;;;5.35;100.00
47897;BME280;39629;51.400;5.494;2023-11-21T00:55:02;100809.28;;;5.34;100.00
47897;BME280;39629;51.400;5.494;2023-11-21T01:00:07;100816.22;;;5.32;100.00
47897;BME280;39629;51.400;5.494;2023-11-21T01:05:13;100823.91;;;5.24;100.00
47897;BME280;39629;51.400;5.494;2023-11-21T01:10:15;100832.47;;;5.17;100.00
47897;BME280;39629;51.400;5.494;2023-11-21T01:15:19;100828.72;;;5.01;100.00
47897;BME280;39629;51.400;5.494;2023-11-21T01:20:20;100844.97;;;4.89;100.00
47897;BME280;39629;51.400;5.494;2023-11-21T01:25:22;100848.22;;;4.78;100.00
47897;BME280;39629;51.400;5.494;2023-11-21T01:30:25;100845.44;;;4.70;100.00
47897;BME280;39629;51.400;5.494;2023-11-21T01:35:27;100851.13;;;4.52;100.00
47897;BME280;39629;51.400;5.494;2023-11-21T01:40:28;100856.91;;;4.38;100.00
47897;BME280;39629;51.400;5.494;2023-11-21T01:45:32;100864.41;;;4.24;100.00
47897;BME280;39629;51.400;5.494;2023-11-21T01:50:34;100869.53;;;4.20;100.00
47897;BME280;39629;51.400;5.494;2023-11-21T01:55:36;100865.13;;;4.17;100.00
47897;BME280;39629;51.400;5.494;2023-11-21T02:00:40;100859.84;;;4.14;100.00
47897;BME280;39629;51.400;5.494;2023-11-21T02:05:42;100860.88;;;4.21;100.00
47897;BME280;39629;51.400;5.494;2023-11-21T02:10:44;100863.63;;;4.29;100.00
47897;BME280;39629;51.400;5.494;2023-11-21T02:15:47;100867.56;;;4.48;100.00
47897;BME280;39629;51.400;5.494;2023-11-21T02:20:50;100878.16;;;4.55;100.00
47897;BME280;39629;51.400;5.494;2023-11-21T02:25:53;100891.41;;;4.66;100.00
47897;BME280;39629;51.400;5.494;2023-11-21T02:30:55;100893.19;;;4.69;100.00
47897;BME280;39629;51.400;5.494;2023-11-21T02:35:58;100893.44;;;4.80;100.00
47897;BME280;39629;51.400;5.494;2023-11-21T02:41:01;100905.91;;;4.93;100.00
47897;BME280;39629;51.400;5.494;2023-11-21T02:46:03;100904.38;;;5.03;100.00
47897;BME280;39629;51.400;5.494;2023-11-21T02:51:04;100908.00;;;5.09;100.00
47897;BME280;39629;51.400;5.494;2023-11-21T02:56:08;100899.25;;;5.09;100.00
47897;BME280;39629;51.400;5.494;2023-11-21T03:01:10;100903.66;;;5.10;100.00
47897;BME280;39629;51.400;5.494;2023-11-21T03:06:13;100909.72;;;5.10;100.00
47897;BME280;39629;51.400;5.494;2023-11-21T03:11:16;100908.88;;;5.11;100.00
47897;BME280;39629;51.400;5.494;2023-11-21T03:16:19;100906.34;;;5.15;100.00
47897;BME280;39629;51.400;5.494;2023-11-21T03:21:21;100917.66;;;5.15;100.00
47897;BME280;39629;51.400;5.494;2023-11-21T03:26:24;100917.59;;;5.12;100.00
47897;BME280;39629;51.400;5.494;2023-11-21T03:31:25;100930.81;;;5.20;100.00
47897;BME280;39629;51.400;5.494;2023-11-21T03:36:27;100930.75;;;5.17;100.00
47897;BME280;39629;51.400;5.494;2023-11-21T03:41:30;100936.81;;;5.17;100.00
47897;BME280;39629;51.400;5.494;2023-11-21T03:46:32;100923.66;;;5.09;100.00
47897;BME280;39629;51.400;5.494;2023-11-21T03:51:34;100928.72;;;5.03;100.00
47897;BME280;39629;51.400;5.494;2023-11-21T03:56:39;100929.66;;;5.07;100.00
47897;BME280;39629;51.400;5.494;2023-11-21T04:01:41;100939.09;;;5.00;100.00
47897;BME280;39629;51.400;5.494;2023-11-21T04:06:42;100940.72;;;4.95;100.00
47897;BME280;39629;51.400;5.494;2023-11-21T04:11:45;100945.88;;;4.92;100.00
47897;BME280;39629;51.400;5.494;2023-11-21T04:16:47;100951.19;;;4.98;100.00
47897;BME280;39629;51.400;5.494;2023-11-21T04:21:49;100958.13;;;4.96;100.00
47897;BME280;39629;51.400;5.494;2023-11-21T04:26:52;100965.78;;;4.90;100.00
47897;BME280;39629;51.400;5.494;2023-11-21T04:31:54;100980.47;;;4.85;100.00
47897;BME280;39629;51.400;5.494;2023-11-21T04:36:56;100981.56;;;4.94;100.00
47897;BME280;39629;51.400;5.494;2023-11-21T04:41:59;100984.97;;;4.92;100.00
47897;BME280;39629;51.400;5.494;2023-11-21T04:47:01;100999.78;;;4.93;100.00
47897;BME280;39629;51.400;5.494;2023-11-21T04:52:05;100999.78;;;4.93;100.00
47897;BME280;39629;51.400;5.494;2023-11-21T04:57:09;101012.91;;;4.96;100.00
47897;BME280;39629;51.400;5.494;2023-11-21T05:02:10;101016.63;;;5.07;100.00
47897;BME280;39629;51.400;5.494;2023-11-21T05:07:12;101020.06;;;5.06;100.00
47897;BME280;39629;51.400;5.494;2023-11-21T05:12:15;101016.56;;;5.04;100.00
47897;BME280;39629;51.400;5.494;2023-11-21T05:17:17;101023.66;;;5.11;100.00
47897;BME280;39629;51.400;5.494;2023-11-21T05:22:19;101022.91;;;5.16;100.00
47897;BME280;39629;51.400;5.494;2023-11-21T05:27:22;101022.88;;;5.14;100.00
47897;BME280;39629;51.400;5.494;2023-11-21T05:32:24;101041.22;;;5.19;100.00
47897;BME280;39629;51.400;5.494;2023-11-21T05:37:25;101031.56;;;5.15;100.00
47897;BME280;39629;51.400;5.494;2023-11-21T05:42:28;101032.56;;;5.20;100.00
47897;BME280;39629;51.400;5.494;2023-11-21T05:47:31;101040.59;;;5.29;100.00
47897;BME280;39629;51.400;5.494;2023-11-21T05:52:33;101045.84;;;5.31;100.00
47897;BME280;39629;51.400;5.494;2023-11-21T05:57:37;101063.16;;;5.27;100.00
47897;BME280;39629;51.400;5.494;2023-11-21T06:02:39;101067.78;;;5.39;100.00
47897;BME280;39629;51.400;5.494;2023-11-21T06:07:41;101069.47;;;5.38;100.00
47897;BME280;39629;51.400;5.494;2023-11-21T06:12:44;101074.06;;;5.49;100.00
47897;BME280;39629;51.400;5.494;2023-11-21T06:17:46;101083.63;;;5.50;100.00
47897;BME280;39629;51.400;5.494;2023-11-21T06:22:52;101100.31;;;5.56;100.00
47897;BME280;39629;51.400;5.494;2023-11-21T06:27:55;101092.63;;;5.61;100.00
47897;BME280;39629;51.400;5.494;2023-11-21T06:32:57;101090.13;;;5.67;100.00
47897;BME280;39629;51.400;5.494;2023-11-21T06:37:59;101091.88;;;5.68;100.00
47897;BME280;39629;51.400;5.494;2023-11-21T06:43:02;101102.47;;;5.76;100.00
47897;BME280;39629;51.400;5.494;2023-11-21T06:48:05;101100.78;;;5.76;100.00
47897;BME280;39629;51.400;5.494;2023-11-21T06:53:07;101104.16;;;5.72;100.00
47897;BME280;39629;51.400;5.494;2023-11-21T06:58:11;101119.19;;;5.84;100.00
47897;BME280;39629;51.400;5.494;2023-11-21T07:03:14;101127.06;;;5.86;100.00
47897;BME280;39629;51.400;5.494;2023-11-21T07:08:16;101127.25;;;5.95;100.00
47897;BME280;39629;51.400;5.494;2023-11-21T07:13:19;101140.34;;;5.96;100.00
47897;BME280;39629;51.400;5.494;2023-11-21T07:18:22;101150.16;;;6.07;100.00
47897;BME280;39629;51.400;5.494;2023-11-21T07:23:23;101149.16;;;6.02;100.00
47897;BME280;39629;51.400;5.494;2023-11-21T07:28:26;101162.41;;;6.09;100.00
47897;BME280;39629;51.400;5.494;2023-11-21T07:33:28;101176.41;;;6.13;100.00
47897;BME280;39629;51.400;5.494;2023-11-21T07:38:29;101186.00;;;6.14;100.00
47897;BME280;39629;51.400;5.494;2023-11-21T07:43:32;101185.31;;;6.23;100.00
47897;BME280;39629;51.400;5.494;2023-11-21T07:48:35;101197.69;;;6.31;100.00
47897;BME280;39629;51.400;5.494;2023-11-21T07:53:37;101204.66;;;6.31;100.00
47897;BME280;39629;51.400;5.494;2023-11-21T07:58:40;101205.50;;;6.30;100.00
47897;BME280;39629;51.400;5.494;2023-11-21T08:03:41;101218.03;;;6.46;100.00
47897;BME280;39629;51.400;5.494;2023-11-21T08:08:44;101225.88;;;6.46;100.00
47897;BME280;39629;51.400;5.494;2023-11-21T08:13:48;101229.44;;;6.49;100.00
47897;BME280;39629;51.400;5.494;2023-11-21T08:18:50;101227.88;;;6.58;100.00
47897;BME280;39629;51.400;5.494;2023-11-21T08:23:52;101234.13;;;6.65;100.00
47897;BME280;39629;51.400;5.494;2023-11-21T08:28:55;101225.50;;;6.69;100.00
47897;BME280;39629;51.400;5.494;2023-11-21T08:33:57;101229.84;;;6.70;100.00
47897;BME280;39629;51.400;5.494;2023-11-21T08:39:00;101249.44;;;6.92;100.00
47897;BME280;39629;51.400;5.494;2023-11-21T08:44:04;101246.19;;;7.04;100.00
47897;BME280;39629;51.400;5.494;2023-11-21T08:49:07;101255.16;;;7.19;100.00
47897;BME280;39629;51.400;5.494;2023-11-21T08:54:09;101257.03;;;7.26;100.00
47897;BME280;39629;51.400;5.494;2023-11-21T08:59:13;101266.06;;;7.43;100.00
47897;BME280;39629;51.400;5.494;2023-11-21T09:04:15;101272.25;;;7.48;100.00
47897;BME280;39629;51.400;5.494;2023-11-21T09:09:17;101269.56;;;7.45;100.00
47897;BME280;39629;51.400;5.494;2023-11-21T09:14:21;101273.13;;;7.47;100.00
47897;BME280;39629;51.400;5.494;2023-11-21T09:19:23;101264.56;;;7.59;100.00
47897;BME280;39629;51.400;5.494;2023-11-21T09:24:25;101274.38;;;7.73;100.00
47897;BME280;39629;51.400;5.494;2023-11-21T09:29:28;101279.63;;;7.73;100.00
47897;BME280;39629;51.400;5.494;2023-11-21T09:34:30;101290.16;;;7.77;100.00
47897;BME280;39629;51.400;5.494;2023-11-21T09:39:32;101300.72;;;7.80;100.00
47897;BME280;39629;51.400;5.494;2023-11-21T09:44:43;101313.03;;;7.84;100.00
47897;BME280;39629;51.400;5.494;2023-11-21T09:49:48;101312.22;;;7.89;100.00
47897;BME280;39629;51.400;5.494;2023-11-21T09:54:51;101333.09;;;7.86;100.00
47897;BME280;39629;51.400;5.494;2023-11-21T09:59:55;101329.97;;;8.08;100.00
47897;BME280;39629;51.400;5.494;2023-11-21T10:04:59;101344.00;;;8.12;100.00
47897;BME280;39629;51.400;5.494;2023-11-21T10:10:02;101345.75;;;8.11;100.00
47897;BME280;39629;51.400;5.494;2023-11-21T10:15:07;101351.06;;;8.16;100.00
47897;BME280;39629;51.400;5.494;2023-11-21T10:20:11;101354.94;;;8.41;100.00
47897;BME280;39629;51.400;5.494;2023-11-21T10:25:13;101358.84;;;8.71;100.00
47897;BME280;39629;51.400;5.494;2023-11-21T10:30:17;101352.75;;;8.74;100.00
47897;BME280;39629;51.400;5.494;2023-11-21T10:35:19;101343.28;;;8.88;100.00
47897;BME280;39629;51.400;5.494;2023-11-21T10:40:21;101352.97;;;8.92;100.00
47897;BME280;39629;51.400;5.494;2023-11-21T10:45:24;101352.06;;;8.89;100.00
47897;BME280;39629;51.400;5.494;2023-11-21T10:50:26;101358.34;;;9.00;100.00
47897;BME280;39629;51.400;5.494;2023-11-21T10:55:28;101373.16;;;8.95;100.00
47897;BME280;39629;51.400;5.494;2023-11-21T11:00:32;101366.06;;;8.91;100.00
47897;BME280;39629;51.400;5.494;2023-11-21T11:05:34;101368.16;;;9.15;100.00
47897;BME280;39629;51.400;5.494;2023-11-21T11:10:36;101380.47;;;9.20;100.00
47897;BME280;39629;51.400;5.494;2023-11-21T11:15:39;101384.03;;;9.26;100.00
47897;BME280;39629;51.400;5.494;2023-11-21T11:20:42;101370.00;;;9.24;100.00
47897;BME280;39629;51.400;5.494;2023-11-21T11:25:55;101384.97;;;9.32;100.00
47897;BME280;39629;51.400;5.494;2023-11-21T11:31:07;101391.16;;;9.36;100.00
47897;BME280;39629;51.400;5.494;2023-11-21T11:36:17;101398.09;;;9.31;100.00
47897;BME280;39629;51.400;5.494;2023-11-21T11:41:29;101407.78;;;9.36;100.00
47897;BME280;39629;51.400;5.494;2023-11-21T11:46:44;101407.06;;;9.48;100.00
47897;BME280;39629;51.400;5.494;2023-11-21T11:51:46;101414.97;;;9.54;100.00
47897;BME280;39629;51.400;5.494;2023-11-21T11:56:48;101404.47;;;9.54;100.00
47897;BME280;39629;51.400;5.494;2023-11-21T12:01:51;101416.88;;;9.68;100.00
47897;BME280;39629;51.400;5.494;2023-11-21T12:06:53;101429.06;;;9.58;100.00
47897;BME280;39629;51.400;5.494;2023-11-21T12:11:56;101437.81;;;9.59;100.00
47897;BME280;39629;51.400;5.494;2023-11-21T12:17:00;101442.03;;;9.44;100.00
47897;BME280;39629;51.400;5.494;2023-11-21T12:22:03;101447.44;;;9.57;100.00
47897;BME280;39629;51.400;5.494;2023-11-21T12:27:04;101456.97;;;9.47;100.00
47897;BME280;39629;51.400;5.494;2023-11-21T12:32:07;101461.31;;;9.46;100.00
47897;BME280;39629;51.400;5.494;2023-11-21T12:37:11;101462.22;;;9.48;100.00
47897;BME280;39629;51.400;5.494;2023-11-21T12:42:13;101472.69;;;9.45;100.00
47897;BME280;39629;51.400;5.494;2023-11-21T12:47:18;101474.41;;;9.42;100.00
47897;BME280;39629;51.400;5.494;2023-11-21T12:52:20;101471.00;;;9.50;100.00
47897;BME280;39629;51.400;5.494;2023-11-21T13:10:19;101478.75;;;9.41;100.00
47897;BME280;39629;51.400;5.494;2023-11-21T13:15:26;101480.53;;;9.42;100.00
47897;BME280;39629;51.400;5.494;2023-11-21T13:20:28;101483.91;;;9.32;100.00
47897;BME280;39629;51.400;5.494;2023-11-21T13:25:31;101494.41;;;9.32;100.00
47897;BME280;39629;51.400;5.494;2023-11-21T13:30:33;101509.19;;;9.22;100.00
47897;BME280;39629;51.400;5.494;2023-11-21T13:35:36;101491.78;;;9.30;100.00
47897;BME280;39629;51.400;5.494;2023-11-21T13:40:47;101510.72;;;9.09;100.00
47897;BME280;39629;51.400;5.494;2023-11-21T13:45:50;101519.69;;;9.24;100.00
47897;BME280;39629;51.400;5.494;2023-11-21T13:50:55;101515.59;;;9.44;100.00
47897;BME280;39629;51.400;5.494;2023-11-21T13:56:00;101532.06;;;9.31;100.00
47897;BME280;39629;51.400;5.494;2023-11-21T14:01:02;101534.69;;;9.31;100.00
47897;BME280;39629;51.400;5.494;2023-11-21T14:06:06;101542.53;;;9.28;100.00
47897;BME280;39629;51.400;5.494;2023-11-21T14:11:16;101560.78;;;9.20;100.00
47897;BME280;39629;51.400;5.494;2023-11-21T14:16:18;101554.63;;;9.16;100.00
47897;BME280;39629;51.400;5.494;2023-11-21T14:21:21;101566.03;;;9.18;100.00
47897;BME280;39629;51.400;5.494;2023-11-21T14:26:24;101571.28;;;9.18;100.00
47897;BME280;39629;51.400;5.494;2023-11-21T14:31:26;101588.81;;;9.21;100.00
47897;BME280;39629;51.400;5.494;2023-11-21T14:36:30;101588.81;;;9.19;100.00
47897;BME280;39629;51.400;5.494;2023-11-21T14:41:33;101587.00;;;9.15;100.00
47897;BME280;39629;51.400;5.494;2023-11-21T14:46:37;101593.09;;;9.16;100.00
47897;BME280;39629;51.400;5.494;2023-11-21T14:51:40;101602.75;;;9.17;100.00
47897;BME280;39629;51.400;5.494;2023-11-21T14:57:01;101619.47;;;9.22;100.00
47897;BME280;39629;51.400;5.494;2023-11-21T15:02:03;101617.88;;;9.32;100.00
47897;BME280;39629;51.400;5.494;2023-11-21T15:07:15;101633.63;;;9.30;100.00
47897;BME280;39629;51.400;5.494;2023-11-21T15:12:18;101650.19;;;9.26;100.00
47897;BME280;39629;51.400;5.494;2023-11-21T15:17:23;101655.34;;;9.22;100.00
47897;BME280;39629;51.400;5.494;2023-11-21T15:22:26;101660.56;;;9.18;100.00
47897;BME280;39629;51.400;5.494;2023-11-21T15:27:30;101667.53;;;9.16;100.00
47897;BME280;39629;51.400;5.494;2023-11-21T15:32:32;101675.22;;;9.04;100.00
47897;BME280;39629;51.400;5.494;2023-11-21T15:37:33;101678.59;;;8.97;100.00
47897;BME280;39629;51.400;5.494;2023-11-21T15:42:36;101696.81;;;8.91;100.00
47897;BME280;39629;51.400;5.494;2023-11-21T15:47:39;101696.72;;;8.84;100.00
47897;BME280;39629;51.400;5.494;2023-11-21T15:52:41;101713.28;;;8.80;100.00
47897;BME280;39629;51.400;5.494;2023-11-21T15:57:45;101720.16;;;8.75;100.00
47897;BME280;39629;51.400;5.494;2023-11-21T16:02:47;101718.41;;;8.76;100.00
47897;BME280;39629;51.400;5.494;2023-11-21T16:07:48;101728.81;;;8.69;100.00
47897;BME280;39629;51.400;5.494;2023-11-21T16:12:52;101751.47;;;8.66;100.00
47897;BME280;39629;51.400;5.494;2023-11-21T16:17:53;101762.84;;;8.65;100.00
47897;BME280;39629;51.400;5.494;2023-11-21T16:22:56;101759.34;;;8.66;100.00
47897;BME280;39629;51.400;5.494;2023-11-21T16:27:59;101774.16;;;8.62;100.00
47897;BME280;39629;51.400;5.494;2023-11-21T16:33:04;101793.34;;;8.60;100.00
47897;BME280;39629;51.400;5.494;2023-11-21T16:38:05;101800.38;;;8.61;100.00
47897;BME280;39629;51.400;5.494;2023-11-21T16:43:09;101812.53;;;8.57;100.00
47897;BME280;39629;51.400;5.494;2023-11-21T16:48:11;101822.06;;;8.53;100.00
47897;BME280;39629;51.400;5.494;2023-11-21T16:53:13;101820.16;;;8.46;100.00
47897;BME280;39629;51.400;5.494;2023-11-21T16:58:16;101836.69;;;8.42;100.00
47897;BME280;39629;51.400;5.494;2023-11-21T17:03:17;101846.13;;;8.34;100.00
47897;BME280;39629;51.400;5.494;2023-11-21T17:08:20;101861.75;;;8.29;100.00
47897;BME280;39629;51.400;5.494;2023-11-21T17:13:23;101874.78;;;8.25;100.00
47897;BME280;39629;51.400;5.494;2023-11-21T17:18:25;101890.31;;;8.17;100.00
47897;BME280;39629;51.400;5.494;2023-11-21T17:23:27;101913.78;;;8.11;100.00
47897;BME280;39629;51.400;5.494;2023-11-21T17:28:30;101924.78;;;7.97;100.00
47897;BME280;39629;51.400;5.494;2023-11-21T17:33:32;101922.88;;;7.90;100.00
47897;BME280;39629;51.400;5.494;2023-11-21T17:38:33;101939.84;;;7.71;100.00
47897;BME280;39629;51.400;5.494;2023-11-21T17:43:37;101961.25;;;7.56;100.00
47897;BME280;39629;51.400;5.494;2023-11-21T17:48:41;101963.47;;;7.41;100.00
47897;BME280;39629;51.400;5.494;2023-11-21T17:53:42;101965.81;;;7.31;100.00
47897;BME280;39629;51.400;5.494;2023-11-21T17:58:46;101978.66;;;7.22;100.00
47897;BME280;39629;51.400;5.494;2023-11-21T18:03:48;101985.34;;;7.12;100.00
47897;BME280;39629;51.400;5.494;2023-11-21T18:08:50;101995.53;;;7.03;100.00
47897;BME280;39629;51.400;5.494;2023-11-21T18:13:53;101998.78;;;6.94;100.00
47897;BME280;39629;51.400;5.494;2023-11-21T18:18:55;102013.44;;;6.89;100.00
47897;BME280;39629;51.400;5.494;2023-11-21T18:23:57;102018.63;;;6.88;100.00
47897;BME280;39629;51.400;5.494;2023-11-21T18:29:00;102029.50;;;6.73;100.00
47897;BME280;39629;51.400;5.494;2023-11-21T18:34:01;102033.84;;;6.72;100.00
47897;BME280;39629;51.400;5.494;2023-11-21T18:39:03;102044.22;;;6.69;100.00
47897;BME280;39629;51.400;5.494;2023-11-21T18:44:09;102063.09;;;6.60;100.00
47897;BME280;39629;51.400;5.494;2023-11-21T18:49:10;102063.81;;;6.56;100.00
47897;BME280;39629;51.400;5.494;2023-11-21T18:54:12;102065.94;;;6.42;100.00
47897;BME280;39629;51.400;5.494;2023-11-21T18:59:15;102077.88;;;6.34;100.00
47897;BME280;39629;51.400;5.494;2023-11-21T19:04:17;102076.56;;;6.21;100.00
47897;BME280;39629;51.400;5.494;2023-11-21T19:09:21;102092.88;;;6.14;100.00
47897;BME280;39629;51.400;5.494;2023-11-21T19:14:23;102101.03;;;5.99;100.00
47897;BME280;39629;51.400;5.494;2023-11-21T19:19:25;102113.69;;;5.88;100.00
47897;BME280;39629;51.400;5.494;2023-11-21T19:24:27;102122.00;;;5.76;100.00
47897;BME280;39629;51.400;5.494;2023-11-21T19:29:30;102121.78;;;5.72;100.00
47897;BME280;39629;51.400;5.494;2023-11-21T19:34:31;102126.63;;;5.61;100.00
47897;BME280;39629;51.400;5.494;2023-11-21T19:39:33;102136.88;;;5.56;100.00
47897;BME280;39629;51.400;5.494;2023-11-21T19:44:36;102152.94;;;5.43;100.00
47897;BME280;39629;51.400;5.494;2023-11-21T19:49:38;102159.75;;;5.39;100.00
47897;BME280;39629;51.400;5.494;2023-11-21T19:54:40;102175.03;;;5.30;100.00
47897;BME280;39629;51.400;5.494;2023-11-21T19:59:43;102182.22;;;5.15;100.00
47897;BME280;39629;51.400;5.494;2023-11-21T20:04:45;102186.75;;;5.19;100.00
47897;BME280;39629;51.400;5.494;2023-11-21T20:09:47;102193.13;;;5.04;100.00
47897;BME280;39629;51.400;5.494;2023-11-21T20:14:51;102201.53;;;4.97;100.00
47897;BME280;39629;51.400;5.494;2023-11-21T20:19:53;102216.91;;;4.91;100.00
47897;BME280;39629;51.400;5.494;2023-11-21T20:24:55;102222.44;;;4.78;100.00
47897;BME280;39629;51.400;5.494;2023-11-21T20:29:58;102230.81;;;4.70;100.00
47897;BME280;39629;51.400;5.494;2023-11-21T20:35:00;102226.56;;;4.72;100.00
47897;BME280;39629;51.400;5.494;2023-11-21T20:40:02;102227.81;;;4.61;100.00
47897;BME280;39629;51.400;5.494;2023-11-21T20:45:09;102232.63;;;4.52;100.00
47897;BME280;39629;51.400;5.494;2023-11-21T20:50:13;102232.50;;;4.49;100.00
47897;BME280;39629;51.400;5.494;2023-11-21T20:55:18;102231.19;;;4.39;100.00
47897;BME280;39629;51.400;5.494;2023-11-21T21:00:21;102232.06;;;4.39;100.00
47897;BME280;39629;51.400;5.494;2023-11-21T21:05:26;102230.88;;;4.33;100.00
47897;BME280;39629;51.400;5.494;2023-11-21T21:10:27;102236.66;;;4.25;100.00
47897;BME280;39629;51.400;5.494;2023-11-21T21:15:31;102246.25;;;4.27;100.00
47897;BME280;39629;51.400;5.494;2023-11-21T21:20:32;102257.22;;;4.19;100.00
47897;BME280;39629;51.400;5.494;2023-11-21T21:25:34;102269.78;;;4.28;100.00
47897;BME280;39629;51.400;5.494;2023-11-21T21:30:37;102271.00;;;4.17;100.00
47897;BME280;39629;51.400;5.494;2023-11-21T21:35:40;102277.72;;;4.12;100.00
47897;BME280;39629;51.400;5.494;2023-11-21T21:40:42;102276.06;;;4.14;100.00
47897;BME280;39629;51.400;5.494;2023-11-21T21:45:45;102294.69;;;4.03;100.00
47897;BME280;39629;51.400;5.494;2023-11-21T21:50:46;102310.38;;;4.05;100.00
47897;BME280;39629;51.400;5.494;2023-11-21T21:55:49;102317.09;;;4.00;100.00
47897;BME280;39629;51.400;5.494;2023-11-21T22:00:53;102325.75;;;3.81;100.00
47897;BME280;39629;51.400;5.494;2023-11-21T22:05:55;102332.28;;;3.90;100.00
47897;BME280;39629;51.400;5.494;2023-11-21T22:10:58;102326.75;;;3.84;100.00
47897;BME280;39629;51.400;5.494;2023-11-21T22:16:01;102333.97;;;3.72;100.00
47897;BME280;39629;51.400;5.494;2023-11-21T22:21:03;102342.09;;;3.60;100.00
47897;BME280;39629;51.400;5.494;2023-11-21T22:26:05;102365.66;;;3.63;100.00
47897;BME280;39629;51.400;5.494;2023-11-21T22:31:08;102374.47;;;3.65;100.00
47897;BME280;39629;51.400;5.494;2023-11-21T22:36:12;102382.03;;;3.61;100.00
47897;BME280;39629;51.400;5.494;2023-11-21T22:41:22;102406.94;;;3.55;100.00
47897;BME280;39629;51.400;5.494;2023-11-21T22:46:25;102397.50;;;3.57;100.00
47897;BME280;39629;51.400;5.494;2023-11-21T22:51:27;102400.56;;;3.67;100.00
47897;BME280;39629;51.400;5.494;2023-11-21T22:56:29;102400.50;;;3.65;100.00
47897;BME280;39629;51.400;5.494;2023-11-21T23:01:33;102405.25;;;3.74;100.00
47897;BME280;39629;51.400;5.494;2023-11-21T23:06:35;102407.03;;;3.57;100.00
47897;BME280;39629;51.400;5.494;2023-11-21T23:11:36;102396.84;;;3.62;100.00
47897;BME280;39629;51.400;5.494;2023-11-21T23:16:39;102394.81;;;3.56;100.00
47897;BME280;39629;51.400;5.494;2023-11-21T23:21:41;102385.13;;;3.53;100.00
47897;BME280;39629;51.400;5.494;2023-11-21T23:26:43;102395.53;;;3.53;100.00
47897;BME280;39629;51.400;5.494;2023-11-21T23:31:46;102405.28;;;3.57;100.00
47897;BME280;39629;51.400;5.494;2023-11-21T23:36:47;102395.66;;;3.38;100.00
47897;BME280;39629;51.400;5.494;2023-11-21T23:41:49;102395.66;;;3.22;100.00
47897;BME280;39629;51.400;5.494;2023-11-21T23:46:52;102416.16;;;3.32;100.00
47897;BME280;39629;51.400;5.494;2023-11-21T23:51:54;102416.31;;;3.19;100.00
47897;BME280;39629;51.400;5.494;2023-11-21T23:56:56;102426.16;;;3.08;100.00
